createdAt,value
2018-08-10T00:01:58.344Z,99.90
2018-08-10T00:04:26.972Z,99.90
2018-08-10T00:06:55.589Z,99.90
2018-08-10T00:09:24.149Z,99.90
2018-08-10T00:11:52.753Z,99.90
2018-08-10T00:15:07.173Z,99.90
2018-08-10T00:17:36.726Z,99.90
2018-08-10T00:20:07.405Z,99.90
2018-08-10T00:22:36.018Z,99.90
2018-08-10T00:25:06.278Z,99.90
2018-08-10T00:27:34.950Z,99.90
2018-08-10T00:30:04.826Z,99.90
2018-08-10T00:32:33.468Z,99.90
2018-08-10T00:35:02.162Z,99.90
2018-08-10T00:37:30.729Z,99.90
2018-08-10T00:39:59.607Z,99.90
2018-08-10T00:42:28.249Z,99.90
2018-08-10T00:44:56.905Z,99.90
2018-08-10T00:47:25.549Z,99.90
2018-08-10T00:49:54.137Z,99.90
2018-08-10T00:52:22.766Z,99.90
2018-08-10T00:54:51.397Z,99.90
2018-08-10T00:57:20.002Z,99.90
2018-08-10T00:59:48.625Z,99.90
2018-08-10T01:02:17.249Z,99.90
2018-08-10T01:04:45.905Z,99.90
2018-08-10T01:07:14.542Z,99.90
2018-08-10T01:09:43.120Z,99.90
2018-08-10T01:12:11.828Z,99.90
2018-08-10T01:14:40.461Z,99.90
2018-08-10T01:17:09.185Z,99.90
2018-08-10T01:19:37.849Z,99.90
2018-08-10T01:22:06.597Z,99.90
2018-08-10T01:24:35.233Z,99.90
2018-08-10T01:27:05.501Z,99.90
2018-08-10T01:29:34.064Z,99.90
2018-08-10T01:32:02.774Z,99.90
2018-08-10T01:34:31.373Z,99.90
2018-08-10T01:37:00.010Z,99.90
2018-08-10T01:39:29.566Z,99.90
2018-08-10T01:41:58.185Z,99.90
2018-08-10T01:44:26.819Z,99.90
2018-08-10T01:46:55.417Z,99.90
2018-08-10T01:49:24.097Z,99.90
2018-08-10T01:51:52.692Z,99.90
2018-08-10T01:54:21.352Z,99.90
2018-08-10T01:56:49.946Z,99.90
2018-08-10T01:59:18.580Z,99.90
2018-08-10T02:01:47.161Z,99.90
2018-08-10T02:04:15.804Z,99.90
2018-08-10T02:06:44.416Z,99.90
2018-08-10T02:09:13.057Z,99.90
2018-08-10T02:11:41.660Z,99.90
2018-08-10T02:14:10.259Z,99.90
2018-08-10T02:16:38.846Z,99.90
2018-08-10T02:19:07.545Z,99.90
2018-08-10T02:21:36.162Z,99.90
2018-08-10T02:24:04.825Z,99.90
2018-08-10T02:26:33.437Z,99.90
2018-08-10T02:29:02.082Z,99.90
2018-08-10T02:31:30.696Z,99.90
2018-08-10T02:33:59.313Z,99.90
2018-08-10T02:36:28.073Z,99.90
2018-08-10T02:38:56.707Z,99.90
2018-08-10T02:41:25.349Z,99.90
2018-08-10T02:43:53.931Z,99.90
2018-08-10T02:46:22.531Z,99.90
2018-08-10T02:48:51.090Z,99.90
2018-08-10T02:51:19.705Z,99.90
2018-08-10T02:53:48.289Z,99.90
2018-08-10T02:56:23.643Z,99.90
2018-08-10T02:58:52.231Z,99.90
2018-08-10T03:01:20.812Z,99.90
2018-08-10T03:03:49.396Z,99.90
2018-08-10T03:06:18.017Z,99.90
2018-08-10T03:08:46.656Z,99.90
2018-08-10T03:11:15.245Z,99.90
2018-08-10T03:13:43.893Z,99.90
2018-08-10T03:16:12.484Z,99.90
2018-08-10T03:18:41.117Z,99.90
2018-08-10T03:21:09.749Z,99.90
2018-08-10T03:23:38.366Z,99.90
2018-08-10T03:26:07.026Z,99.90
2018-08-10T03:28:35.642Z,99.90
2018-08-10T03:31:04.285Z,99.90
2018-08-10T03:33:32.875Z,99.90
2018-08-10T03:36:01.553Z,99.90
2018-08-10T03:38:30.197Z,99.90
2018-08-10T03:40:58.765Z,99.90
2018-08-10T03:43:27.430Z,99.90
2018-08-10T03:45:55.984Z,99.90
2018-08-10T03:48:24.613Z,99.90
2018-08-10T03:50:53.196Z,99.90
2018-08-10T03:53:21.862Z,99.90
2018-08-10T03:55:50.457Z,99.90
2018-08-10T03:58:19.097Z,99.90
2018-08-10T04:00:47.686Z,99.90
2018-08-10T04:03:16.297Z,99.90
2018-08-10T04:05:45.321Z,99.90
2018-08-10T04:08:13.916Z,99.90
2018-08-10T04:10:42.528Z,99.90
2018-08-10T04:13:11.113Z,99.90
2018-08-10T04:15:39.760Z,99.90
2018-08-10T04:18:08.397Z,99.90
2018-08-10T04:20:37.033Z,99.90
2018-08-10T04:23:06.141Z,99.90
2018-08-10T04:25:34.756Z,99.90
2018-08-10T04:28:03.377Z,99.90
2018-08-10T04:30:31.951Z,99.90
2018-08-10T04:33:00.567Z,99.90
2018-08-10T04:35:29.216Z,99.90
2018-08-10T04:37:57.864Z,99.90
2018-08-10T04:40:26.490Z,99.90
2018-08-10T04:42:55.065Z,99.90
2018-08-10T04:45:23.709Z,99.90
2018-08-10T04:47:52.382Z,99.90
2018-08-10T04:50:21.010Z,99.90
2018-08-10T04:52:49.598Z,99.90
2018-08-10T04:55:18.249Z,99.90
2018-08-10T04:57:46.834Z,99.90
2018-08-10T05:00:15.473Z,99.90
2018-08-10T05:02:44.029Z,99.90
2018-08-10T05:05:12.690Z,99.90
2018-08-10T05:07:42.325Z,99.90
2018-08-10T05:10:11.318Z,99.90
2018-08-10T05:12:40.246Z,99.90
2018-08-10T05:15:09.984Z,99.90
2018-08-10T05:17:39.156Z,99.90
2018-08-10T05:20:08.862Z,99.90
2018-08-10T05:22:37.580Z,99.90
2018-08-10T05:25:06.277Z,99.90
2018-08-10T05:27:35.017Z,99.90
2018-08-10T05:30:03.690Z,99.90
2018-08-10T05:32:32.372Z,99.90
2018-08-10T05:35:00.993Z,99.90
2018-08-10T05:37:29.729Z,99.90
2018-08-10T05:39:58.366Z,99.90
2018-08-10T05:42:26.992Z,99.90
2018-08-10T05:44:55.557Z,99.90
2018-08-10T05:47:24.180Z,99.90
2018-08-10T05:49:52.806Z,99.90
2018-08-10T05:52:21.416Z,99.90
2018-08-10T05:54:50.011Z,99.90
2018-08-10T05:57:18.678Z,99.90
2018-08-10T05:59:47.261Z,99.90
2018-08-10T06:02:15.885Z,99.90
2018-08-10T06:04:44.458Z,99.90
2018-08-10T06:07:13.180Z,99.90
2018-08-10T06:09:41.808Z,99.90
2018-08-10T06:12:10.460Z,99.90
2018-08-10T06:14:39.037Z,99.90
2018-08-10T06:17:07.682Z,99.90
2018-08-10T06:19:36.360Z,99.90
2018-08-10T06:22:05.008Z,94.10
2018-08-10T06:24:33.685Z,86.40
2018-08-10T06:27:02.311Z,79.70
2018-08-10T06:29:30.913Z,73.90
2018-08-10T06:31:59.650Z,69.60
2018-08-10T06:34:28.310Z,64.30
2018-08-10T06:36:56.938Z,60.80
2018-08-10T06:39:25.636Z,61.70
2018-08-10T06:41:54.326Z,61.10
2018-08-10T06:44:22.968Z,62.10
2018-08-10T06:46:51.610Z,59.70
2018-08-10T06:49:20.559Z,59.10
2018-08-10T06:51:49.143Z,57.80
2018-08-10T06:54:17.838Z,56.50
2018-08-10T06:56:46.434Z,55.90
2018-08-10T06:59:15.079Z,55.80
2018-08-10T07:01:43.664Z,55.80
2018-08-10T07:04:12.273Z,55.30
2018-08-10T07:06:40.949Z,54.80
2018-08-10T07:09:11.173Z,52.10
2018-08-10T07:11:39.786Z,51.10
2018-08-10T07:14:08.463Z,51.40
2018-08-10T07:16:37.081Z,51.80
2018-08-10T07:19:05.706Z,49.90
2018-08-10T07:21:34.295Z,50.10
2018-08-10T07:24:02.933Z,49.00
2018-08-10T07:26:31.511Z,48.50
2018-08-10T07:29:00.186Z,46.90
2018-08-10T07:31:28.893Z,46.70
2018-08-10T07:33:57.501Z,46.60
2018-08-10T07:36:26.208Z,46.00
2018-08-10T07:38:55.174Z,46.00
2018-08-10T07:41:23.790Z,45.20
2018-08-10T07:43:52.392Z,43.00
2018-08-10T07:46:21.010Z,42.40
2018-08-10T07:48:50.325Z,42.70
2018-08-10T07:51:20.713Z,42.40
2018-08-10T07:53:49.769Z,43.20
2018-08-10T07:56:18.410Z,42.70
2018-08-10T07:58:46.995Z,42.50
2018-08-10T08:01:15.657Z,42.10
2018-08-10T08:03:44.501Z,42.90
2018-08-10T08:06:13.203Z,42.70
2018-08-10T08:08:41.808Z,41.50
2018-08-10T08:11:10.672Z,39.60
2018-08-10T08:13:39.291Z,37.80
2018-08-10T08:16:08.439Z,40.50
2018-08-10T08:18:37.533Z,40.50
2018-08-10T08:21:10.078Z,41.10
2018-08-10T08:23:38.715Z,41.60
2018-08-10T08:26:07.475Z,40.90
2018-08-10T08:28:36.709Z,40.00
2018-08-10T08:31:05.929Z,40.10
2018-08-10T08:33:44.485Z,39.40
2018-08-10T08:36:13.405Z,40.70
2018-08-10T08:38:53.293Z,41.20
2018-08-10T08:41:21.941Z,39.30
2018-08-10T08:46:08.899Z,40.00
2018-08-10T08:48:43.424Z,40.30
2018-08-10T08:51:19.154Z,39.90
2018-08-10T08:53:48.522Z,41.00
2018-08-10T08:56:20.065Z,44.30
2018-08-10T08:58:49.890Z,45.90
2018-08-10T09:01:18.870Z,44.20
2018-08-10T09:05:02.982Z,42.30
2018-08-10T09:07:32.189Z,39.30
2018-08-10T09:10:01.530Z,40.60
2018-08-10T09:12:30.557Z,40.90
2018-08-10T09:15:03.865Z,40.40
2018-08-10T09:17:32.720Z,37.90
2018-08-10T09:20:01.338Z,37.50
2018-08-10T09:22:30.331Z,37.00
2018-08-10T09:24:58.973Z,35.80
2018-08-10T09:27:27.612Z,36.90
2018-08-10T09:29:56.213Z,37.30
2018-08-10T09:32:24.952Z,36.00
2018-08-10T09:34:53.569Z,34.40
2018-08-10T09:37:22.251Z,34.40
2018-08-10T09:39:50.832Z,34.90
2018-08-10T09:42:19.602Z,35.60
2018-08-10T09:44:48.199Z,35.30
2018-08-10T09:47:16.857Z,34.40
2018-08-10T09:49:46.910Z,35.10
2018-08-10T09:52:15.706Z,34.50
2018-08-10T09:55:26.086Z,33.40
2018-08-10T09:57:56.260Z,33.00
2018-08-10T10:00:30.191Z,33.10
2018-08-10T10:03:04.209Z,34.90
2018-08-10T10:05:32.839Z,34.60
2018-08-10T10:08:01.581Z,33.00
2018-08-10T10:10:30.257Z,33.10
2018-08-10T10:12:59.053Z,33.10
2018-08-10T10:15:27.689Z,33.90
2018-08-10T10:17:56.453Z,32.30
2018-08-10T10:20:25.074Z,31.60
2018-08-10T10:22:53.718Z,33.80
2018-08-10T10:25:22.397Z,34.90
2018-08-10T10:27:51.023Z,34.80
2018-08-10T10:30:19.620Z,34.20
2018-08-10T10:32:48.441Z,33.20
2018-08-10T10:35:16.998Z,33.10
2018-08-10T10:37:45.648Z,34.00
2018-08-10T10:40:14.292Z,32.50
2018-08-10T10:42:43.006Z,30.60
2018-08-10T10:45:13.432Z,31.60
2018-08-10T10:47:43.197Z,33.20
2018-08-10T10:50:12.694Z,34.40
2018-08-10T10:52:41.647Z,36.10
2018-08-10T10:55:10.670Z,37.80
2018-08-10T10:57:40.484Z,36.80
2018-08-10T11:00:18.569Z,35.30
2018-08-10T11:02:48.162Z,34.10
2018-08-10T11:05:16.525Z,34.30
2018-08-10T11:07:45.318Z,33.80
2018-08-10T11:10:15.480Z,34.80
2018-08-10T11:12:44.126Z,34.50
2018-08-10T11:15:13.290Z,35.70
2018-08-10T11:17:41.901Z,35.20
2018-08-10T11:20:11.917Z,35.70
2018-08-10T11:22:41.305Z,35.80
2018-08-10T11:25:11.659Z,36.40
2018-08-10T11:27:40.823Z,38.00
2018-08-10T11:30:10.291Z,38.60
2018-08-10T11:32:39.189Z,39.30
2018-08-10T11:35:08.374Z,38.50
2018-08-10T11:37:37.300Z,37.50
2018-08-10T11:40:07.825Z,37.70
2018-08-10T11:42:36.500Z,38.20
2018-08-10T11:45:07.362Z,39.20
2018-08-10T11:47:35.941Z,38.50
2018-08-10T11:50:04.829Z,37.10
2018-08-10T11:52:35.133Z,36.60
2018-08-10T11:55:03.790Z,36.10
2018-08-10T11:57:32.576Z,36.40
2018-08-10T12:00:01.198Z,37.80
2018-08-10T12:02:29.823Z,37.80
2018-08-10T12:04:58.420Z,38.20
2018-08-10T12:07:27.061Z,38.30
2018-08-10T12:09:55.636Z,39.00
2018-08-10T12:12:24.282Z,39.50
2018-08-10T12:14:52.880Z,39.20
2018-08-10T12:17:22.117Z,39.20
2018-08-10T12:19:50.742Z,38.80
2018-08-10T12:22:19.405Z,39.50
2018-08-10T12:24:48.063Z,39.00
2018-08-10T12:27:16.713Z,38.50
2018-08-10T12:29:45.425Z,38.20
2018-08-10T12:32:14.087Z,37.50
2018-08-10T12:34:42.831Z,38.40
2018-08-10T12:37:11.456Z,38.80
2018-08-10T12:39:41.633Z,39.90
2018-08-10T12:42:10.265Z,41.00
2018-08-10T12:44:38.929Z,40.30
2018-08-10T12:47:07.589Z,39.90
2018-08-10T12:49:36.208Z,39.20
2018-08-10T12:52:04.825Z,39.20
2018-08-10T12:54:33.417Z,38.80
2018-08-10T12:57:02.158Z,39.00
2018-08-10T12:59:30.705Z,39.30
2018-08-10T13:01:59.391Z,39.00
2018-08-10T13:04:28.081Z,40.50
2018-08-10T13:06:56.728Z,40.80
2018-08-10T13:09:25.344Z,40.90
2018-08-10T13:11:53.988Z,39.60
2018-08-10T13:14:22.649Z,39.20
2018-08-10T13:16:51.298Z,37.60
2018-08-10T13:19:19.907Z,38.20
2018-08-10T13:21:48.533Z,37.60
2018-08-10T13:24:17.124Z,36.20
2018-08-10T13:26:45.786Z,36.00
2018-08-10T13:29:14.456Z,35.20
2018-08-10T13:31:43.169Z,35.00
2018-08-10T13:34:11.812Z,36.40
2018-08-10T13:36:40.600Z,36.80
2018-08-10T13:39:11.314Z,36.90
2018-08-10T13:41:40.784Z,37.80
2018-08-10T13:44:09.524Z,38.00
2018-08-10T13:46:38.142Z,37.20
2018-08-10T13:49:06.760Z,38.10
2018-08-10T13:51:35.467Z,37.00
2018-08-10T13:54:04.240Z,37.10
2018-08-10T13:56:32.886Z,37.80
2018-08-10T13:59:01.543Z,35.90
2018-08-10T14:01:31.788Z,36.60
2018-08-10T14:04:00.457Z,35.00
2018-08-10T14:06:29.240Z,36.00
2018-08-10T14:08:57.889Z,35.80
2018-08-10T14:11:26.520Z,34.20
2018-08-10T14:13:55.209Z,34.30
2018-08-10T14:16:23.820Z,35.30
2018-08-10T14:18:52.465Z,35.50
2018-08-10T14:21:21.086Z,34.90
2018-08-10T14:23:49.726Z,34.90
2018-08-10T14:26:18.417Z,35.00
2018-08-10T14:28:47.052Z,35.20
2018-08-10T14:31:15.751Z,35.90
2018-08-10T14:33:44.468Z,36.30
2018-08-10T14:36:13.157Z,35.90
2018-08-10T14:38:41.837Z,36.20
2018-08-10T14:41:10.552Z,35.50
2018-08-10T14:43:39.157Z,36.40
2018-08-10T14:46:07.856Z,35.10
2018-08-10T14:48:36.513Z,34.70
2018-08-10T14:51:05.170Z,35.20
2018-08-10T14:53:33.850Z,35.30
2018-08-10T14:56:02.429Z,36.20
2018-08-10T14:58:31.142Z,35.20
2018-08-10T15:00:59.812Z,34.70
2018-08-10T15:03:28.497Z,34.70
2018-08-10T15:05:57.118Z,33.50
2018-08-10T15:08:25.747Z,33.20
2018-08-10T15:10:54.388Z,33.50
2018-08-10T15:13:23.058Z,33.80
2018-08-10T15:15:51.705Z,33.20
2018-08-10T15:18:20.403Z,34.00
2018-08-10T15:20:49.064Z,33.90
2018-08-10T15:23:17.688Z,34.00
2018-08-10T15:25:46.345Z,35.30
2018-08-10T15:28:14.994Z,36.20
2018-08-10T15:30:43.677Z,35.10
2018-08-10T15:33:12.308Z,35.90
2018-08-10T15:35:40.970Z,35.70
2018-08-10T15:38:09.680Z,35.20
2018-08-10T15:40:39.129Z,35.80
2018-08-10T15:43:07.793Z,36.30
2018-08-10T15:45:36.409Z,36.00
2018-08-10T15:48:05.090Z,36.20
2018-08-10T15:50:34.037Z,36.50
2018-08-10T15:53:02.645Z,36.10
2018-08-10T15:55:31.272Z,36.20
2018-08-10T15:57:59.917Z,36.30
2018-08-10T16:00:29.437Z,36.60
2018-08-10T16:03:04.493Z,34.80
2018-08-10T16:05:33.138Z,34.30
2018-08-10T16:08:01.735Z,32.70
2018-08-10T16:10:30.480Z,32.60
2018-08-10T16:12:59.142Z,33.10
2018-08-10T16:15:27.714Z,33.40
2018-08-10T16:17:56.346Z,33.80
2018-08-10T16:20:25.021Z,33.20
2018-08-10T16:22:53.624Z,33.20
2018-08-10T16:25:22.202Z,32.80
2018-08-10T16:27:50.877Z,31.70
2018-08-10T16:30:19.557Z,32.20
2018-08-10T16:32:48.197Z,32.70
2018-08-10T16:35:16.993Z,33.50
2018-08-10T16:37:46.581Z,33.00
2018-08-10T16:40:16.637Z,32.60
2018-08-10T16:42:45.326Z,33.00
2018-08-10T16:45:14.661Z,33.10
2018-08-10T16:47:43.484Z,33.60
2018-08-10T16:50:14.298Z,33.70
2018-08-10T16:52:43.794Z,34.60
2018-08-10T16:55:15.197Z,35.80
2018-08-10T16:57:44.717Z,35.90
2018-08-10T17:00:18.098Z,35.80
2018-08-10T17:02:47.237Z,35.50
2018-08-10T17:05:15.949Z,35.00
2018-08-10T17:07:44.816Z,35.30
2018-08-10T17:10:13.560Z,35.70
2018-08-10T17:12:43.803Z,35.00
2018-08-10T17:15:15.910Z,36.00
2018-08-10T17:17:45.560Z,35.50
2018-08-10T17:20:14.762Z,35.80
2018-08-10T17:22:43.988Z,36.60
2018-08-10T17:25:15.449Z,37.20
2018-08-10T17:27:44.113Z,37.40
2018-08-10T17:30:15.289Z,38.30
2018-08-10T17:32:43.910Z,37.30
2018-08-10T17:35:13.705Z,37.70
2018-08-10T17:37:43.927Z,38.50
2018-08-10T17:40:12.628Z,37.60
2018-08-10T17:42:41.327Z,38.20
2018-08-10T17:45:14.651Z,38.10
2018-08-10T17:47:43.338Z,38.50
2018-08-10T17:50:14.998Z,38.60
2018-08-10T17:52:45.222Z,38.20
2018-08-10T17:55:15.085Z,38.80
2018-08-10T17:57:43.906Z,39.40
2018-08-10T18:00:15.962Z,39.00
2018-08-10T18:02:45.157Z,38.70
2018-08-10T18:05:14.928Z,39.20
2018-08-10T18:07:43.924Z,39.40
2018-08-10T18:10:13.436Z,39.80
2018-08-10T18:12:42.624Z,40.10
2018-08-10T18:15:13.644Z,40.90
2018-08-10T18:17:42.585Z,41.00
2018-08-10T18:20:14.420Z,41.20
2018-08-10T18:22:43.974Z,40.00
2018-08-10T18:25:13.669Z,40.60
2018-08-10T18:27:42.863Z,41.00
2018-08-10T18:30:13.889Z,40.80
2018-08-10T18:32:42.615Z,40.80
2018-08-10T18:35:11.725Z,41.50
2018-08-10T18:37:41.402Z,41.00
2018-08-10T18:40:12.057Z,40.60
2018-08-10T18:42:41.860Z,40.70
2018-08-10T18:45:11.772Z,40.50
2018-08-10T18:47:40.866Z,40.30
2018-08-10T18:50:11.138Z,40.90
2018-08-10T18:52:39.827Z,41.20
2018-08-10T18:55:09.921Z,41.50
2018-08-10T18:57:38.629Z,42.00
2018-08-10T19:00:09.901Z,42.50
2018-08-10T19:02:38.591Z,42.60
2018-08-10T19:05:09.718Z,43.00
2018-08-10T19:07:38.325Z,43.50
2018-08-10T19:10:08.152Z,43.40
2018-08-10T19:12:37.444Z,44.00
2018-08-10T19:15:08.820Z,44.50
2018-08-10T19:17:38.610Z,44.90
2018-08-10T19:20:07.954Z,45.70
2018-08-10T19:22:36.929Z,45.90
2018-08-10T19:25:06.633Z,46.40
2018-08-10T19:27:35.300Z,46.50
2018-08-10T19:30:05.062Z,46.70
2018-08-10T19:32:33.729Z,46.70
2018-08-10T19:35:02.496Z,47.00
2018-08-10T19:37:31.141Z,47.50
2018-08-10T19:40:01.614Z,47.70
2018-08-10T19:42:30.354Z,47.70
2018-08-10T19:44:59.006Z,47.60
2018-08-10T19:47:29.639Z,47.90
2018-08-10T19:49:58.375Z,48.40
2018-08-10T19:52:27.009Z,48.50
2018-08-10T19:54:55.596Z,48.60
2018-08-10T19:57:24.205Z,48.60
2018-08-10T19:59:52.925Z,49.20
2018-08-10T20:02:21.560Z,49.20
2018-08-10T20:04:50.204Z,48.80
2018-08-10T20:07:18.790Z,48.70
2018-08-10T20:09:47.575Z,48.60
2018-08-10T20:12:16.218Z,49.10
2018-08-10T20:14:44.882Z,49.10
2018-08-10T20:17:13.684Z,49.40
2018-08-10T20:19:42.349Z,49.80
2018-08-10T20:22:15.569Z,50.40
2018-08-10T20:24:44.288Z,50.30
2018-08-10T20:27:13.192Z,50.10
2018-08-10T20:29:41.917Z,49.80
2018-08-10T20:32:11.102Z,50.50
2018-08-10T20:34:39.767Z,50.70
2018-08-10T20:37:08.432Z,51.00
2018-08-10T20:39:37.025Z,51.30
2018-08-10T20:42:05.865Z,51.20
2018-08-10T20:44:34.512Z,51.80
2018-08-10T20:47:04.068Z,51.90
2018-08-10T20:49:32.673Z,52.10
2018-08-10T20:52:01.788Z,52.40
2018-08-10T20:54:30.430Z,52.70
2018-08-10T20:56:59.344Z,52.80
2018-08-10T20:59:27.926Z,52.70
2018-08-10T21:01:56.587Z,52.80
2018-08-10T21:04:25.274Z,52.70
2018-08-10T21:06:53.971Z,53.00
2018-08-10T21:09:23.296Z,53.20
2018-08-10T21:11:51.957Z,53.40
2018-08-10T21:14:20.611Z,53.60
2018-08-10T21:16:49.285Z,53.80
2018-08-10T21:19:17.873Z,54.00
2018-08-10T21:21:46.611Z,54.00
2018-08-10T21:24:15.745Z,54.10
2018-08-10T21:26:44.430Z,54.40
2018-08-10T21:29:13.045Z,54.50
2018-08-10T21:31:41.697Z,54.60
2018-08-10T21:34:10.732Z,54.80
2018-08-10T21:36:39.757Z,55.20
2018-08-10T21:39:10.724Z,55.60
2018-08-10T21:41:39.701Z,55.70
2018-08-10T21:44:08.635Z,56.30
2018-08-10T21:46:37.536Z,56.80
2018-08-10T21:49:06.714Z,57.00
2018-08-10T21:51:35.425Z,57.10
2018-08-10T21:54:04.129Z,57.50
2018-08-10T21:56:32.977Z,57.70
2018-08-10T21:59:01.715Z,57.80
2018-08-10T22:01:30.395Z,58.10
2018-08-10T22:03:59.057Z,58.40
2018-08-10T22:06:27.961Z,58.90
2018-08-10T22:08:56.522Z,59.10
2018-08-10T22:11:25.150Z,59.50
2018-08-10T22:13:58.956Z,59.90
2018-08-10T22:16:33.052Z,60.30
2018-08-10T22:19:06.991Z,60.60
2018-08-10T22:21:35.654Z,60.90
2018-08-10T22:24:04.345Z,61.10
2018-08-10T22:26:33.109Z,61.60
2018-08-10T22:29:01.813Z,61.70
2018-08-10T22:31:30.478Z,62.20
2018-08-10T22:33:59.149Z,62.50
2018-08-10T22:36:27.856Z,63.30
2018-08-10T22:38:56.551Z,62.70
2018-08-10T22:41:25.258Z,63.10
2018-08-10T22:43:53.849Z,63.70
2018-08-10T22:46:22.525Z,64.70
2018-08-10T22:48:51.162Z,64.80
2018-08-10T22:51:19.829Z,65.40
2018-08-10T22:53:48.476Z,66.10
2018-08-10T22:56:17.105Z,66.50
2018-08-10T22:58:45.760Z,66.80
2018-08-10T23:01:14.465Z,67.30
2018-08-10T23:03:43.117Z,68.30
2018-08-10T23:06:14.053Z,69.10
2018-08-10T23:08:42.836Z,70.10
2018-08-10T23:11:11.372Z,70.80
2018-08-10T23:13:40.057Z,71.90
2018-08-10T23:16:08.763Z,72.70
2018-08-10T23:18:37.408Z,73.70
2018-08-10T23:21:06.258Z,75.30
2018-08-10T23:23:34.885Z,76.40
2018-08-10T23:26:03.498Z,76.60
2018-08-10T23:28:32.193Z,77.00
2018-08-10T23:31:00.804Z,77.60
2018-08-10T23:33:29.450Z,79.10
2018-08-10T23:35:58.092Z,79.10
2018-08-10T23:38:26.736Z,79.80
2018-08-10T23:40:55.417Z,80.10
2018-08-10T23:43:24.077Z,80.60
2018-08-10T23:45:52.709Z,81.40
2018-08-10T23:48:21.341Z,81.50
2018-08-10T23:50:49.984Z,82.10
2018-08-10T23:53:18.620Z,82.20
2018-08-10T23:55:47.297Z,82.90
2018-08-10T23:58:16.041Z,83.20
